sensor_id;sensor_type;location;lat;lon;timestamp;temperature;humidity
326;DHT22;150;52.352;14.058;2023-07-31T00:02:23;19.50;35.10
326;DHT22;150;52.352;14.058;2023-07-31T00:04:50;19.40;35.30
326;DHT22;150;52.352;14.058;2023-07-31T00:07:19;19.40;35.30
326;DHT22;150;52.352;14.058;2023-07-31T00:09:46;19.40;34.30
326;DHT22;150;52.352;14.058;2023-07-31T00:12:16;19.30;34.40
326;DHT22;150;52.352;14.058;2023-07-31T00:14:45;19.30;34.50
326;DHT22;150;52.352;14.058;2023-07-31T00:17:12;19.30;34.50
326;DHT22;150;52.352;14.058;2023-07-31T00:19:39;19.30;34.70
326;DHT22;150;52.352;14.058;2023-07-31T00:22:08;19.40;34.30
326;DHT22;150;52.352;14.058;2023-07-31T00:24:36;19.40;34.10
326;DHT22;150;52.352;14.058;2023-07-31T00:27:03;19.30;33.80
326;DHT22;150;52.352;14.058;2023-07-31T00:29:30;19.30;33.70
326;DHT22;150;52.352;14.058;2023-07-31T00:31:56;19.20;34.20
326;DHT22;150;52.352;14.058;2023-07-31T00:34:23;19.10;34.50
326;DHT22;150;52.352;14.058;2023-07-31T00:36:50;19.20;35.30
326;DHT22;150;52.352;14.058;2023-07-31T00:39:20;19.10;35.30
326;DHT22;150;52.352;14.058;2023-07-31T00:41:48;19.00;35.70
326;DHT22;150;52.352;14.058;2023-07-31T00:44:15;18.90;35.70
326;DHT22;150;52.352;14.058;2023-07-31T00:46:41;19.00;36.00
326;DHT22;150;52.352;14.058;2023-07-31T00:49:09;18.80;36.20
326;DHT22;150;52.352;14.058;2023-07-31T00:51:39;18.80;36.20
326;DHT22;150;52.352;14.058;2023-07-31T00:54:06;18.70;36.20
326;DHT22;150;52.352;14.058;2023-07-31T00:56:35;18.80;36.10
326;DHT22;150;52.352;14.058;2023-07-31T00:59:04;18.80;36.60
326;DHT22;150;52.352;14.058;2023-07-31T01:01:31;18.80;35.60
326;DHT22;150;52.352;14.058;2023-07-31T01:03:57;18.80;35.80
326;DHT22;150;52.352;14.058;2023-07-31T01:06:33;18.90;35.90
326;DHT22;150;52.352;14.058;2023-07-31T01:09:06;18.90;35.80
326;DHT22;150;52.352;14.058;2023-07-31T01:11:40;18.90;35.30
326;DHT22;150;52.352;14.058;2023-07-31T01:14:10;19.00;35.00
326;DHT22;150;52.352;14.058;2023-07-31T01:16:37;19.00;34.70
326;DHT22;150;52.352;14.058;2023-07-31T01:19:05;19.00;34.70
326;DHT22;150;52.352;14.058;2023-07-31T01:22:06;19.00;35.00
326;DHT22;150;52.352;14.058;2023-07-31T01:24:43;19.10;35.50
326;DHT22;150;52.352;14.058;2023-07-31T01:27:19;19.10;35.40
326;DHT22;150;52.352;14.058;2023-07-31T01:29:53;19.20;35.70
326;DHT22;150;52.352;14.058;2023-07-31T01:32:22;19.20;34.60
326;DHT22;150;52.352;14.058;2023-07-31T01:34:51;19.20;35.30
326;DHT22;150;52.352;14.058;2023-07-31T01:37:21;19.30;34.70
326;DHT22;150;52.352;14.058;2023-07-31T01:39:47;19.20;34.80
326;DHT22;150;52.352;14.058;2023-07-31T01:42:15;19.20;35.30
326;DHT22;150;52.352;14.058;2023-07-31T01:44:42;19.30;35.40
326;DHT22;150;52.352;14.058;2023-07-31T01:47:09;19.30;35.50
326;DHT22;150;52.352;14.058;2023-07-31T01:49:36;19.30;35.40
326;DHT22;150;52.352;14.058;2023-07-31T01:52:05;19.30;35.30
326;DHT22;150;52.352;14.058;2023-07-31T01:54:32;19.40;35.60
326;DHT22;150;52.352;14.058;2023-07-31T01:56:58;19.40;35.90
326;DHT22;150;52.352;14.058;2023-07-31T01:59:26;19.40;35.90
326;DHT22;150;52.352;14.058;2023-07-31T02:01:54;19.40;35.80
326;DHT22;150;52.352;14.058;2023-07-31T02:04:21;19.40;35.60
326;DHT22;150;52.352;14.058;2023-07-31T02:06:47;19.50;36.00
326;DHT22;150;52.352;14.058;2023-07-31T02:09:14;19.50;36.10
326;DHT22;150;52.352;14.058;2023-07-31T02:11:40;19.50;36.10
326;DHT22;150;52.352;14.058;2023-07-31T02:14:07;19.50;36.40
326;DHT22;150;52.352;14.058;2023-07-31T02:16:35;19.60;36.60
326;DHT22;150;52.352;14.058;2023-07-31T02:19:01;19.60;36.40
326;DHT22;150;52.352;14.058;2023-07-31T02:21:28;19.50;36.00
326;DHT22;150;52.352;14.058;2023-07-31T02:23:54;19.60;36.50
326;DHT22;150;52.352;14.058;2023-07-31T02:26:21;19.60;36.20
326;DHT22;150;52.352;14.058;2023-07-31T02:28:48;19.70;36.60
326;DHT22;150;52.352;14.058;2023-07-31T02:31:15;19.70;36.70
326;DHT22;150;52.352;14.058;2023-07-31T02:33:43;19.70;36.60
326;DHT22;150;52.352;14.058;2023-07-31T02:36:09;19.70;36.90
326;DHT22;150;52.352;14.058;2023-07-31T02:38:36;19.70;37.00
326;DHT22;150;52.352;14.058;2023-07-31T02:41:02;19.60;36.90
326;DHT22;150;52.352;14.058;2023-07-31T02:43:29;19.60;36.50
326;DHT22;150;52.352;14.058;2023-07-31T02:45:56;19.60;36.70
326;DHT22;150;52.352;14.058;2023-07-31T02:48:22;19.60;36.80
326;DHT22;150;52.352;14.058;2023-07-31T02:50:50;19.50;37.40
326;DHT22;150;52.352;14.058;2023-07-31T02:53:17;19.50;38.00
326;DHT22;150;52.352;14.058;2023-07-31T02:55:43;19.50;38.20
326;DHT22;150;52.352;14.058;2023-07-31T02:58:10;19.50;38.40
326;DHT22;150;52.352;14.058;2023-07-31T03:00:42;19.40;39.20
326;DHT22;150;52.352;14.058;2023-07-31T03:03:09;19.40;39.00
326;DHT22;150;52.352;14.058;2023-07-31T03:05:35;19.20;39.00
326;DHT22;150;52.352;14.058;2023-07-31T03:08:03;19.10;38.80
326;DHT22;150;52.352;14.058;2023-07-31T03:10:30;19.10;38.70
326;DHT22;150;52.352;14.058;2023-07-31T03:12:57;19.10;39.00
326;DHT22;150;52.352;14.058;2023-07-31T03:15:23;19.10;39.20
326;DHT22;150;52.352;14.058;2023-07-31T03:17:50;19.00;38.80
326;DHT22;150;52.352;14.058;2023-07-31T03:20:16;18.90;39.70
326;DHT22;150;52.352;14.058;2023-07-31T03:22:43;18.80;39.50
326;DHT22;150;52.352;14.058;2023-07-31T03:25:12;18.80;39.30
326;DHT22;150;52.352;14.058;2023-07-31T03:27:39;18.80;39.80
326;DHT22;150;52.352;14.058;2023-07-31T03:30:07;18.70;40.20
326;DHT22;150;52.352;14.058;2023-07-31T03:32:34;18.70;40.10
326;DHT22;150;52.352;14.058;2023-07-31T03:35:00;18.70;39.80
326;DHT22;150;52.352;14.058;2023-07-31T03:37:27;18.60;40.00
326;DHT22;150;52.352;14.058;2023-07-31T03:39:54;18.60;40.10
326;DHT22;150;52.352;14.058;2023-07-31T03:42:22;18.70;40.10
326;DHT22;150;52.352;14.058;2023-07-31T03:44:49;18.80;40.20
326;DHT22;150;52.352;14.058;2023-07-31T03:47:16;18.80;40.20
326;DHT22;150;52.352;14.058;2023-07-31T03:49:43;18.70;40.10
326;DHT22;150;52.352;14.058;2023-07-31T03:52:10;18.80;40.30
326;DHT22;150;52.352;14.058;2023-07-31T03:54:37;18.70;40.30
326;DHT22;150;52.352;14.058;2023-07-31T03:57:04;18.80;40.90
326;DHT22;150;52.352;14.058;2023-07-31T03:59:32;18.80;40.30
326;DHT22;150;52.352;14.058;2023-07-31T04:01:59;18.70;40.60
326;DHT22;150;52.352;14.058;2023-07-31T04:04:26;18.70;41.30
326;DHT22;150;52.352;14.058;2023-07-31T04:06:52;18.70;40.80
326;DHT22;150;52.352;14.058;2023-07-31T04:09:19;18.80;40.90
326;DHT22;150;52.352;14.058;2023-07-31T04:11:46;18.80;41.00
326;DHT22;150;52.352;14.058;2023-07-31T04:14:14;18.80;41.20
326;DHT22;150;52.352;14.058;2023-07-31T04:16:42;18.70;41.10
326;DHT22;150;52.352;14.058;2023-07-31T04:19:08;18.60;41.20
326;DHT22;150;52.352;14.058;2023-07-31T04:21:36;18.60;42.30
326;DHT22;150;52.352;14.058;2023-07-31T04:24:03;18.50;42.70
326;DHT22;150;52.352;14.058;2023-07-31T04:26:29;18.60;42.80
326;DHT22;150;52.352;14.058;2023-07-31T04:28:56;18.50;43.10
326;DHT22;150;52.352;14.058;2023-07-31T04:31:23;18.40;43.40
326;DHT22;150;52.352;14.058;2023-07-31T04:33:51;18.40;44.00
326;DHT22;150;52.352;14.058;2023-07-31T04:36:17;18.40;44.50
326;DHT22;150;52.352;14.058;2023-07-31T04:38:44;18.40;44.10
326;DHT22;150;52.352;14.058;2023-07-31T04:41:11;18.50;44.60
326;DHT22;150;52.352;14.058;2023-07-31T04:43:37;18.40;44.70
326;DHT22;150;52.352;14.058;2023-07-31T04:46:05;18.40;44.40
326;DHT22;150;52.352;14.058;2023-07-31T04:48:32;18.40;45.00
326;DHT22;150;52.352;14.058;2023-07-31T04:51:00;18.40;44.60
326;DHT22;150;52.352;14.058;2023-07-31T04:53:26;18.40;44.60
326;DHT22;150;52.352;14.058;2023-07-31T04:55:53;18.50;45.00
326;DHT22;150;52.352;14.058;2023-07-31T04:58:20;18.40;45.30
326;DHT22;150;52.352;14.058;2023-07-31T05:00:46;18.50;45.20
326;DHT22;150;52.352;14.058;2023-07-31T05:03:13;18.50;44.80
326;DHT22;150;52.352;14.058;2023-07-31T05:05:40;18.60;45.00
326;DHT22;150;52.352;14.058;2023-07-31T05:08:08;18.60;44.10
326;DHT22;150;52.352;14.058;2023-07-31T05:10:34;18.50;44.50
326;DHT22;150;52.352;14.058;2023-07-31T05:13:01;18.60;44.80
326;DHT22;150;52.352;14.058;2023-07-31T05:15:28;18.60;44.30
326;DHT22;150;52.352;14.058;2023-07-31T05:17:54;18.70;44.40
326;DHT22;150;52.352;14.058;2023-07-31T05:20:21;18.70;44.20
326;DHT22;150;52.352;14.058;2023-07-31T05:22:48;18.80;44.40
326;DHT22;150;52.352;14.058;2023-07-31T05:25:16;18.80;43.80
326;DHT22;150;52.352;14.058;2023-07-31T05:27:44;18.70;44.00
326;DHT22;150;52.352;14.058;2023-07-31T05:30:14;18.70;44.00
326;DHT22;150;52.352;14.058;2023-07-31T05:32:41;18.60;44.30
326;DHT22;150;52.352;14.058;2023-07-31T05:35:08;18.60;44.80
326;DHT22;150;52.352;14.058;2023-07-31T05:37:34;18.60;44.80
326;DHT22;150;52.352;14.058;2023-07-31T05:40:01;18.50;44.80
326;DHT22;150;52.352;14.058;2023-07-31T05:42:29;18.50;45.30
326;DHT22;150;52.352;14.058;2023-07-31T05:44:56;18.40;45.60
326;DHT22;150;52.352;14.058;2023-07-31T05:47:22;18.40;46.10
326;DHT22;150;52.352;14.058;2023-07-31T05:49:49;18.50;45.70
326;DHT22;150;52.352;14.058;2023-07-31T05:52:19;18.50;45.70
326;DHT22;150;52.352;14.058;2023-07-31T05:54:46;18.60;46.00
326;DHT22;150;52.352;14.058;2023-07-31T05:57:12;18.60;45.30
326;DHT22;150;52.352;14.058;2023-07-31T05:59:40;18.60;45.40
326;DHT22;150;52.352;14.058;2023-07-31T06:02:07;18.40;45.90
326;DHT22;150;52.352;14.058;2023-07-31T06:04:34;18.40;46.50
326;DHT22;150;52.352;14.058;2023-07-31T06:07:00;18.40;47.00
326;DHT22;150;52.352;14.058;2023-07-31T06:09:28;18.40;46.90
326;DHT22;150;52.352;14.058;2023-07-31T06:11:55;18.40;46.90
326;DHT22;150;52.352;14.058;2023-07-31T06:14:21;18.40;47.10
326;DHT22;150;52.352;14.058;2023-07-31T06:16:49;18.40;47.40
326;DHT22;150;52.352;14.058;2023-07-31T06:19:16;18.40;47.10
326;DHT22;150;52.352;14.058;2023-07-31T06:21:42;18.40;46.90
326;DHT22;150;52.352;14.058;2023-07-31T06:24:09;18.30;48.00
326;DHT22;150;52.352;14.058;2023-07-31T06:26:37;18.40;48.60
326;DHT22;150;52.352;14.058;2023-07-31T06:29:04;18.40;48.10
326;DHT22;150;52.352;14.058;2023-07-31T06:31:30;18.40;48.30
326;DHT22;150;52.352;14.058;2023-07-31T06:33:58;18.40;49.10
326;DHT22;150;52.352;14.058;2023-07-31T06:36:25;18.40;48.80
326;DHT22;150;52.352;14.058;2023-07-31T06:38:52;18.50;47.90
326;DHT22;150;52.352;14.058;2023-07-31T06:41:18;18.50;47.90
326;DHT22;150;52.352;14.058;2023-07-31T06:43:45;18.30;47.50
326;DHT22;150;52.352;14.058;2023-07-31T06:46:12;18.40;48.80
326;DHT22;150;52.352;14.058;2023-07-31T06:48:39;18.50;48.10
326;DHT22;150;52.352;14.058;2023-07-31T06:51:07;18.60;48.60
326;DHT22;150;52.352;14.058;2023-07-31T06:53:33;18.60;47.20
326;DHT22;150;52.352;14.058;2023-07-31T06:56:00;18.50;47.00
326;DHT22;150;52.352;14.058;2023-07-31T06:58:27;18.50;46.70
326;DHT22;150;52.352;14.058;2023-07-31T07:00:54;18.50;46.50
326;DHT22;150;52.352;14.058;2023-07-31T07:03:21;18.50;46.70
326;DHT22;150;52.352;14.058;2023-07-31T07:05:47;18.50;47.00
326;DHT22;150;52.352;14.058;2023-07-31T07:08:16;18.70;47.00
326;DHT22;150;52.352;14.058;2023-07-31T07:10:43;18.70;47.10
326;DHT22;150;52.352;14.058;2023-07-31T07:13:10;18.70;46.50
326;DHT22;150;52.352;14.058;2023-07-31T07:15:38;18.80;46.60
326;DHT22;150;52.352;14.058;2023-07-31T07:18:05;18.90;46.40
326;DHT22;150;52.352;14.058;2023-07-31T07:20:31;18.90;46.00
326;DHT22;150;52.352;14.058;2023-07-31T07:22:58;19.00;45.70
326;DHT22;150;52.352;14.058;2023-07-31T07:25:26;19.00;45.40
326;DHT22;150;52.352;14.058;2023-07-31T07:27:53;18.90;45.70
326;DHT22;150;52.352;14.058;2023-07-31T07:30:20;18.90;45.90
326;DHT22;150;52.352;14.058;2023-07-31T07:32:46;18.80;46.20
326;DHT22;150;52.352;14.058;2023-07-31T07:35:13;18.80;46.50
326;DHT22;150;52.352;14.058;2023-07-31T07:37:40;18.90;46.70
326;DHT22;150;52.352;14.058;2023-07-31T07:40:07;18.80;45.70
326;DHT22;150;52.352;14.058;2023-07-31T07:42:35;18.90;46.80
326;DHT22;150;52.352;14.058;2023-07-31T07:45:03;19.00;46.80
326;DHT22;150;52.352;14.058;2023-07-31T07:47:29;19.00;47.10
326;DHT22;150;52.352;14.058;2023-07-31T07:49:56;19.00;46.70
326;DHT22;150;52.352;14.058;2023-07-31T07:52:23;18.90;46.70
326;DHT22;150;52.352;14.058;2023-07-31T07:54:49;18.90;46.10
326;DHT22;150;52.352;14.058;2023-07-31T07:57:16;19.00;47.20
326;DHT22;150;52.352;14.058;2023-07-31T07:59:44;19.00;47.60
326;DHT22;150;52.352;14.058;2023-07-31T08:02:10;19.00;48.00
326;DHT22;150;52.352;14.058;2023-07-31T08:04:37;19.00;47.60
326;DHT22;150;52.352;14.058;2023-07-31T08:07:04;19.00;48.10
326;DHT22;150;52.352;14.058;2023-07-31T08:09:30;19.10;49.80
326;DHT22;150;52.352;14.058;2023-07-31T08:11:57;19.10;48.50
326;DHT22;150;52.352;14.058;2023-07-31T08:14:27;19.10;49.00
326;DHT22;150;52.352;14.058;2023-07-31T08:16:55;19.10;49.20
326;DHT22;150;52.352;14.058;2023-07-31T08:19:22;19.10;48.90
326;DHT22;150;52.352;14.058;2023-07-31T08:21:49;19.20;49.30
326;DHT22;150;52.352;14.058;2023-07-31T08:24:15;19.30;49.70
326;DHT22;150;52.352;14.058;2023-07-31T08:26:42;19.50;50.20
326;DHT22;150;52.352;14.058;2023-07-31T08:29:09;19.50;49.10
326;DHT22;150;52.352;14.058;2023-07-31T08:31:35;19.50;48.40
326;DHT22;150;52.352;14.058;2023-07-31T08:34:03;19.50;47.90
326;DHT22;150;52.352;14.058;2023-07-31T08:36:30;19.50;47.80
326;DHT22;150;52.352;14.058;2023-07-31T08:38:56;19.50;48.30
326;DHT22;150;52.352;14.058;2023-07-31T08:41:23;19.50;48.00
326;DHT22;150;52.352;14.058;2023-07-31T08:43:52;19.40;48.10
326;DHT22;150;52.352;14.058;2023-07-31T08:46:20;19.40;48.40
326;DHT22;150;52.352;14.058;2023-07-31T08:48:47;19.50;48.40
326;DHT22;150;52.352;14.058;2023-07-31T08:51:15;19.60;47.50
326;DHT22;150;52.352;14.058;2023-07-31T08:53:42;19.60;47.50
326;DHT22;150;52.352;14.058;2023-07-31T08:56:10;19.60;46.50
326;DHT22;150;52.352;14.058;2023-07-31T08:58:38;19.70;46.80
326;DHT22;150;52.352;14.058;2023-07-31T09:01:06;19.70;46.90
326;DHT22;150;52.352;14.058;2023-07-31T09:03:34;19.60;47.40
326;DHT22;150;52.352;14.058;2023-07-31T09:06:02;19.40;49.00
326;DHT22;150;52.352;14.058;2023-07-31T09:08:33;19.20;50.00
326;DHT22;150;52.352;14.058;2023-07-31T09:11:02;19.20;51.20
326;DHT22;150;52.352;14.058;2023-07-31T09:13:31;19.20;52.00
326;DHT22;150;52.352;14.058;2023-07-31T09:15:58;19.30;51.80
326;DHT22;150;52.352;14.058;2023-07-31T09:18:25;19.50;52.50
326;DHT22;150;52.352;14.058;2023-07-31T09:21:02;19.50;52.30
326;DHT22;150;52.352;14.058;2023-07-31T09:23:42;19.50;51.50
326;DHT22;150;52.352;14.058;2023-07-31T09:26:09;19.60;51.50
326;DHT22;150;52.352;14.058;2023-07-31T09:28:35;19.70;51.60
326;DHT22;150;52.352;14.058;2023-07-31T09:31:02;19.70;51.60
326;DHT22;150;52.352;14.058;2023-07-31T09:33:29;19.90;51.20
326;DHT22;150;52.352;14.058;2023-07-31T09:35:58;20.20;51.70
326;DHT22;150;52.352;14.058;2023-07-31T09:38:25;20.40;49.60
326;DHT22;150;52.352;14.058;2023-07-31T09:40:53;20.40;47.80
326;DHT22;150;52.352;14.058;2023-07-31T09:43:21;20.60;47.60
326;DHT22;150;52.352;14.058;2023-07-31T09:45:48;20.70;45.30
326;DHT22;150;52.352;14.058;2023-07-31T09:48:20;20.70;44.80
326;DHT22;150;52.352;14.058;2023-07-31T09:50:48;20.70;43.90
326;DHT22;150;52.352;14.058;2023-07-31T09:53:16;20.70;44.90
326;DHT22;150;52.352;14.058;2023-07-31T09:55:43;20.40;44.40
326;DHT22;150;52.352;14.058;2023-07-31T09:58:12;20.20;45.40
326;DHT22;150;52.352;14.058;2023-07-31T10:00:39;19.90;47.20
326;DHT22;150;52.352;14.058;2023-07-31T10:03:07;19.70;49.00
326;DHT22;150;52.352;14.058;2023-07-31T10:05:36;19.70;50.50
326;DHT22;150;52.352;14.058;2023-07-31T10:08:03;19.60;50.40
326;DHT22;150;52.352;14.058;2023-07-31T10:10:31;19.60;51.50
326;DHT22;150;52.352;14.058;2023-07-31T10:12:59;19.70;51.70
326;DHT22;150;52.352;14.058;2023-07-31T10:15:27;19.90;51.80
326;DHT22;150;52.352;14.058;2023-07-31T10:17:55;19.90;50.90
326;DHT22;150;52.352;14.058;2023-07-31T10:20:23;19.80;51.40
326;DHT22;150;52.352;14.058;2023-07-31T10:22:51;20.00;51.30
326;DHT22;150;52.352;14.058;2023-07-31T10:25:18;19.90;50.70
326;DHT22;150;52.352;14.058;2023-07-31T10:27:47;20.00;51.80
326;DHT22;150;52.352;14.058;2023-07-31T10:30:16;20.10;51.10
326;DHT22;150;52.352;14.058;2023-07-31T10:32:45;20.30;52.20
326;DHT22;150;52.352;14.058;2023-07-31T10:35:12;20.50;52.00
326;DHT22;150;52.352;14.058;2023-07-31T10:37:40;20.70;51.30
326;DHT22;150;52.352;14.058;2023-07-31T10:40:10;20.80;50.20
326;DHT22;150;52.352;14.058;2023-07-31T10:42:46;20.90;47.50
326;DHT22;150;52.352;14.058;2023-07-31T10:45:14;20.90;47.80
326;DHT22;150;52.352;14.058;2023-07-31T10:47:58;21.00;46.20
326;DHT22;150;52.352;14.058;2023-07-31T10:50:26;20.90;46.40
326;DHT22;150;52.352;14.058;2023-07-31T10:52:54;21.00;46.80
326;DHT22;150;52.352;14.058;2023-07-31T10:55:32;21.00;46.90
326;DHT22;150;52.352;14.058;2023-07-31T10:58:06;21.00;45.90
326;DHT22;150;52.352;14.058;2023-07-31T11:00:33;21.00;45.80
326;DHT22;150;52.352;14.058;2023-07-31T11:03:03;21.00;45.20
326;DHT22;150;52.352;14.058;2023-07-31T11:05:50;21.10;45.90
326;DHT22;150;52.352;14.058;2023-07-31T11:08:21;21.20;46.60
326;DHT22;150;52.352;14.058;2023-07-31T11:10:49;21.00;47.60
326;DHT22;150;52.352;14.058;2023-07-31T11:13:16;21.00;47.90
326;DHT22;150;52.352;14.058;2023-07-31T11:15:43;21.00;48.30
326;DHT22;150;52.352;14.058;2023-07-31T11:18:10;21.00;48.90
326;DHT22;150;52.352;14.058;2023-07-31T11:20:38;21.10;49.10
326;DHT22;150;52.352;14.058;2023-07-31T11:23:07;21.10;49.70
326;DHT22;150;52.352;14.058;2023-07-31T11:25:34;21.30;50.60
326;DHT22;150;52.352;14.058;2023-07-31T11:28:05;21.60;51.60
326;DHT22;150;52.352;14.058;2023-07-31T11:30:32;21.80;50.70
326;DHT22;150;52.352;14.058;2023-07-31T11:33:00;22.10;49.60
326;DHT22;150;52.352;14.058;2023-07-31T11:35:30;22.30;46.90
326;DHT22;150;52.352;14.058;2023-07-31T11:37:56;22.50;46.20
326;DHT22;150;52.352;14.058;2023-07-31T11:40:23;22.50;43.50
326;DHT22;150;52.352;14.058;2023-07-31T11:42:54;22.60;42.30
326;DHT22;150;52.352;14.058;2023-07-31T11:45:21;22.70;42.60
326;DHT22;150;52.352;14.058;2023-07-31T11:47:50;22.90;43.00
326;DHT22;150;52.352;14.058;2023-07-31T11:50:18;23.10;40.90
326;DHT22;150;52.352;14.058;2023-07-31T11:52:48;23.20;38.30
326;DHT22;150;52.352;14.058;2023-07-31T11:55:16;23.20;35.70
326;DHT22;150;52.352;14.058;2023-07-31T11:57:43;23.10;33.10
326;DHT22;150;52.352;14.058;2023-07-31T12:00:13;22.90;32.90
326;DHT22;150;52.352;14.058;2023-07-31T12:02:40;22.80;32.80
326;DHT22;150;52.352;14.058;2023-07-31T12:05:10;22.80;33.60
326;DHT22;150;52.352;14.058;2023-07-31T12:07:49;22.80;35.10
326;DHT22;150;52.352;14.058;2023-07-31T12:10:27;23.00;34.50
326;DHT22;150;52.352;14.058;2023-07-31T12:13:02;23.10;34.00
326;DHT22;150;52.352;14.058;2023-07-31T12:15:37;23.10;33.50
326;DHT22;150;52.352;14.058;2023-07-31T12:18:05;23.10;33.10
326;DHT22;150;52.352;14.058;2023-07-31T12:20:32;23.00;33.00
326;DHT22;150;52.352;14.058;2023-07-31T12:23:00;22.90;32.00
326;DHT22;150;52.352;14.058;2023-07-31T12:25:31;22.80;32.80
326;DHT22;150;52.352;14.058;2023-07-31T12:28:03;22.70;32.40
326;DHT22;150;52.352;14.058;2023-07-31T12:30:32;22.70;32.10
326;DHT22;150;52.352;14.058;2023-07-31T12:33:03;22.70;32.70
326;DHT22;150;52.352;14.058;2023-07-31T12:35:35;22.80;32.80
326;DHT22;150;52.352;14.058;2023-07-31T12:38:03;22.80;33.10
326;DHT22;150;52.352;14.058;2023-07-31T12:40:30;22.90;32.90
326;DHT22;150;52.352;14.058;2023-07-31T12:42:56;22.80;32.80
326;DHT22;150;52.352;14.058;2023-07-31T12:45:23;22.60;32.70
326;DHT22;150;52.352;14.058;2023-07-31T12:47:50;22.70;32.70
326;DHT22;150;52.352;14.058;2023-07-31T12:50:16;22.70;32.70
326;DHT22;150;52.352;14.058;2023-07-31T12:52:43;22.90;32.80
326;DHT22;150;52.352;14.058;2023-07-31T12:55:11;22.90;31.80
326;DHT22;150;52.352;14.058;2023-07-31T12:57:39;22.90;32.90
326;DHT22;150;52.352;14.058;2023-07-31T13:00:07;23.00;32.10
326;DHT22;150;52.352;14.058;2023-07-31T13:02:33;23.00;31.10
326;DHT22;150;52.352;14.058;2023-07-31T13:05:00;23.10;31.80
326;DHT22;150;52.352;14.058;2023-07-31T13:07:27;23.10;30.90
326;DHT22;150;52.352;14.058;2023-07-31T13:09:53;23.00;29.90
326;DHT22;150;52.352;14.058;2023-07-31T13:12:21;22.90;31.00
326;DHT22;150;52.352;14.058;2023-07-31T13:14:48;22.80;30.30
326;DHT22;150;52.352;14.058;2023-07-31T13:17:14;22.70;30.90
326;DHT22;150;52.352;14.058;2023-07-31T13:19:41;22.60;30.90
326;DHT22;150;52.352;14.058;2023-07-31T13:22:08;22.50;31.10
326;DHT22;150;52.352;14.058;2023-07-31T13:24:35;22.40;31.30
326;DHT22;150;52.352;14.058;2023-07-31T13:27:01;22.50;31.60
326;DHT22;150;52.352;14.058;2023-07-31T13:29:29;22.40;30.40
326;DHT22;150;52.352;14.058;2023-07-31T13:31:57;22.80;30.40
326;DHT22;150;52.352;14.058;2023-07-31T13:34:24;22.80;30.40
326;DHT22;150;52.352;14.058;2023-07-31T13:36:51;22.90;29.80
326;DHT22;150;52.352;14.058;2023-07-31T13:39:17;22.90;29.60
326;DHT22;150;52.352;14.058;2023-07-31T13:41:44;22.90;30.00
326;DHT22;150;52.352;14.058;2023-07-31T13:44:11;22.80;30.10
326;DHT22;150;52.352;14.058;2023-07-31T13:46:39;22.90;30.30
326;DHT22;150;52.352;14.058;2023-07-31T13:49:05;22.90;30.20
326;DHT22;150;52.352;14.058;2023-07-31T13:51:32;22.90;29.50
326;DHT22;150;52.352;14.058;2023-07-31T13:54:01;22.90;29.40
326;DHT22;150;52.352;14.058;2023-07-31T13:56:27;22.90;29.70
326;DHT22;150;52.352;14.058;2023-07-31T13:58:54;22.90;29.80
326;DHT22;150;52.352;14.058;2023-07-31T14:01:21;23.10;29.80
326;DHT22;150;52.352;14.058;2023-07-31T14:03:49;23.20;29.30
326;DHT22;150;52.352;14.058;2023-07-31T14:06:15;23.00;29.30
326;DHT22;150;52.352;14.058;2023-07-31T14:08:42;23.00;29.40
326;DHT22;150;52.352;14.058;2023-07-31T14:11:08;22.80;29.40
326;DHT22;150;52.352;14.058;2023-07-31T14:13:35;22.60;30.40
326;DHT22;150;52.352;14.058;2023-07-31T14:16:02;22.50;31.10
326;DHT22;150;52.352;14.058;2023-07-31T14:18:28;22.60;31.40
326;DHT22;150;52.352;14.058;2023-07-31T14:20:56;22.70;31.40
326;DHT22;150;52.352;14.058;2023-07-31T14:23:23;23.00;31.10
326;DHT22;150;52.352;14.058;2023-07-31T14:25:50;22.90;30.00
326;DHT22;150;52.352;14.058;2023-07-31T14:28:17;23.00;30.40
326;DHT22;150;52.352;14.058;2023-07-31T14:30:44;23.10;31.10
326;DHT22;150;52.352;14.058;2023-07-31T14:33:11;23.10;29.50
326;DHT22;150;52.352;14.058;2023-07-31T14:35:37;23.20;29.60
326;DHT22;150;52.352;14.058;2023-07-31T14:38:05;23.10;29.30
326;DHT22;150;52.352;14.058;2023-07-31T14:40:32;23.20;30.10
326;DHT22;150;52.352;14.058;2023-07-31T14:42:58;23.30;29.10
326;DHT22;150;52.352;14.058;2023-07-31T14:45:25;23.40;29.10
326;DHT22;150;52.352;14.058;2023-07-31T14:47:52;23.40;29.10
326;DHT22;150;52.352;14.058;2023-07-31T14:50:20;23.50;28.90
326;DHT22;150;52.352;14.058;2023-07-31T14:52:46;23.50;27.90
326;DHT22;150;52.352;14.058;2023-07-31T14:55:15;23.60;28.30
326;DHT22;150;52.352;14.058;2023-07-31T14:57:42;23.60;28.60
326;DHT22;150;52.352;14.058;2023-07-31T15:00:09;23.70;28.20
326;DHT22;150;52.352;14.058;2023-07-31T15:02:36;23.70;28.10
326;DHT22;150;52.352;14.058;2023-07-31T15:05:03;23.80;28.70
326;DHT22;150;52.352;14.058;2023-07-31T15:07:30;23.70;28.40
326;DHT22;150;52.352;14.058;2023-07-31T15:09:57;23.70;28.20
326;DHT22;150;52.352;14.058;2023-07-31T15:12:25;23.70;28.60
326;DHT22;150;52.352;14.058;2023-07-31T15:14:53;23.70;28.70
326;DHT22;150;52.352;14.058;2023-07-31T15:17:19;23.60;28.40
326;DHT22;150;52.352;14.058;2023-07-31T15:19:46;23.50;28.70
326;DHT22;150;52.352;14.058;2023-07-31T15:22:13;23.60;29.10
326;DHT22;150;52.352;14.058;2023-07-31T15:24:40;23.70;29.30
326;DHT22;150;52.352;14.058;2023-07-31T15:27:07;23.70;28.50
326;DHT22;150;52.352;14.058;2023-07-31T15:29:35;23.60;28.10
326;DHT22;150;52.352;14.058;2023-07-31T15:32:03;23.70;28.20
326;DHT22;150;52.352;14.058;2023-07-31T15:34:30;23.60;28.80
326;DHT22;150;52.352;14.058;2023-07-31T15:36:57;23.70;29.00
326;DHT22;150;52.352;14.058;2023-07-31T15:39:23;23.70;29.10
326;DHT22;150;52.352;14.058;2023-07-31T15:41:50;23.70;29.10
326;DHT22;150;52.352;14.058;2023-07-31T15:44:17;23.70;28.50
326;DHT22;150;52.352;14.058;2023-07-31T15:46:45;23.70;28.30
326;DHT22;150;52.352;14.058;2023-07-31T15:49:12;23.60;28.20
326;DHT22;150;52.352;14.058;2023-07-31T15:51:39;23.50;28.40
326;DHT22;150;52.352;14.058;2023-07-31T15:54:05;23.50;28.60
326;DHT22;150;52.352;14.058;2023-07-31T15:56:32;23.50;28.40
326;DHT22;150;52.352;14.058;2023-07-31T15:58:58;23.40;28.10
326;DHT22;150;52.352;14.058;2023-07-31T16:01:26;23.50;28.50
326;DHT22;150;52.352;14.058;2023-07-31T16:03:54;23.50;28.20
326;DHT22;150;52.352;14.058;2023-07-31T16:06:21;23.50;28.10
326;DHT22;150;52.352;14.058;2023-07-31T16:08:47;23.50;28.10
326;DHT22;150;52.352;14.058;2023-07-31T16:11:14;23.50;27.80
326;DHT22;150;52.352;14.058;2023-07-31T16:13:40;23.50;27.00
326;DHT22;150;52.352;14.058;2023-07-31T16:16:07;23.50;27.10
326;DHT22;150;52.352;14.058;2023-07-31T16:18:34;23.50;26.90
326;DHT22;150;52.352;14.058;2023-07-31T16:21:01;23.40;27.00